Data for 05/15/2014

Time Sea-Level Adjusted Pressure Absolute Pressure Temperature Relative Humidity Dew Point   
(mb) (inHg) (mb) (inHg) (C) (F) (%) (C) (F)
00:05 1025 30.27 854 25.22 9 48.1 47 -1.6 29.1
00:10 1025 30.27 854 25.22 9 48.2 48 -1.3 29.7
00:15 1025 30.27 854 25.22 8.8 47.9 49 -1.3 29.6
00:20 1025 30.27 854 25.22 8.8 47.9 48 -1.6 29.2
00:25 1025 30.27 854 25.22 9 48.1 47 -1.7 29
00:30 1025 30.27 854 25.22 9.2 48.5 47 -1.5 29.3
00:35 1025 30.27 854 25.22 8.9 48 48 -1.6 29.2
00:40 1025 30.27 854 25.22 9.2 48.5 46 -1.7 28.9
00:45 1025 30.27 854 25.22 9.1 48.4 48 -1.1 30
00:50 1025 30.27 854 25.22 8.8 47.8 50 -1 30.2
00:55 1025 30.27 854 25.22 8.4 47.2 52 -0.7 30.7
01:00 1025 30.27 854 25.22 8.1 46.6 53 -0.9 30.4
01:05 1025 30.27 854 25.22 8.1 46.7 53 -0.9 30.4
01:10 1025 30.27 854 25.22 8.2 46.7 54 -0.6 31
01:15 1025 30.27 854 25.22 8.1 46.5 55 -0.4 31.2
01:20 1025 30.27 854 25.22 7.8 46 56 -0.4 31.4
01:25 1025 30.27 854 25.22 7.7 45.8 56 -0.6 30.9
01:30 1025 30.27 854 25.22 7.8 46 54 -0.8 30.6
01:35 1025 30.27 854 25.22 8.1 46.6 51 -1.5 29.3
01:40 1025 30.27 854 25.22 8.5 47.4 50 -1.3 29.7
01:45 1025 30.27 854 25.22 8.7 47.7 48 -1.6 29.1
01:50 1025 30.27 854 25.22 9.2 48.5 47 -1.5 29.3
01:55 1025 30.27 854 25.22 9.1 48.3 49 -1 30.2
02:00 1025 30.27 854 25.22 8.7 47.6 52 -0.6 30.9
02:05 1025 30.27 854 25.22 8.4 47.1 54 -0.4 31.3
02:10 1025 30.27 854 25.22 8.1 46.6 54 -0.7 30.7
02:15 1025 30.27 854 25.22 7.9 46.3 57 -0.1 31.8
02:20 1025 30.27 854 25.22 7.8 46 55 -0.8 30.6
02:25 1025 30.27 854 25.22 7.8 46.1 56 -0.4 31.2
02:30 1025 30.27 854 25.22 7.6 45.7 57 -0.4 31.3
02:35 1025 30.27 854 25.22 7.6 45.7 55 -0.8 30.5
02:40 1025 30.27 854 25.22 7.8 46 54 -0.9 30.4
02:45 1025 30.27 854 25.22 8 46.4 52 -1.2 29.8
02:50 1025 30.27 854 25.22 8.3 47 53 -0.6 30.8
02:55 1025 30.27 854 25.22 8.1 46.6 52 -1 30.2
03:00 1025 30.27 854 25.22 8.2 46.8 54 -0.5 31.1
03:05 1025 30.27 854 25.22 7.9 46.3 55 -0.5 31.2
03:10 1025 30.27 854 25.22 7.8 46 57 -0.3 31.5
03:15 1025 30.27 854 25.22 7.6 45.7 58 -0.2 31.7
03:20 1025 30.27 854 25.22 7.4 45.3 58 -0.3 31.5
03:25 1025 30.27 854 25.22 7.4 45.3 57 -0.6 31
03:30 1025 30.27 854 25.22 7.5 45.5 57 -0.3 31.4
03:35 1025 30.27 854 25.22 7.5 45.4 58 -0.3 31.5
03:40 1025 30.27 854 25.22 7.3 45.2 58 -0.4 31.2
03:45 1025 30.27 854 25.22 7.4 45.3 58 -0.4 31.3
03:50 1025 30.27 854 25.22 7.4 45.3 57 -0.6 31
03:55 1025 30.27 854 25.22 7.5 45.5 57 -0.5 31.1
04:00 1025 30.27 854 25.22 7.5 45.5 57 -0.4 31.4
04:05 1025 30.27 854 25.22 7.4 45.3 59 -0 31.9
04:10 1025 30.27 854 25.22 7 44.6 61 0.1 32.1
04:15 1025 30.27 854 25.22 6.7 44.1 62 0.1 32.1
04:20 1025 30.27 854 25.22 6.8 44.2 61 -0.2 31.7
04:25 1025 30.27 854 25.22 7 44.6 60 -0.2 31.6
04:30 1025 30.27 854 25.22 7.4 45.3 59 -0.2 31.7
04:35 1025 30.27 854 25.22 7.5 45.5 59 0.1 32.2
04:40 1025 30.27 854 25.22 7.2 44.9 60 0 32.1
04:45 1025 30.27 854 25.22 7 44.6 61 0.1 32.2
04:50 1025 30.27 854 25.22 6.6 43.9 63 -0 32
04:55 1025 30.27 854 25.22 6.6 43.8 64 0.2 32.3
05:00 1024 30.24 854 25.22 6.3 43.3 65 0.1 32.2
05:05 1025 30.27 854 25.22 6.1 43 64 -0.1 31.8
05:10 1025 30.27 854 25.22 6.1 43.1 64 -0.2 31.7
05:15 1025 30.27 854 25.22 6.2 43.2 63 -0.3 31.4
05:20 1025 30.27 854 25.22 6.6 43.9 62 -0.2 31.7
05:25 1025 30.27 854 25.22 6.6 43.8 63 -0.1 31.9
05:30 1025 30.27 854 25.22 6.4 43.6 63 -0.1 31.8
05:35 1025 30.27 854 25.22 6.5 43.7 62 -0.3 31.5
05:40 1025 30.27 854 25.22 6.6 43.9 61 -0.3 31.4
05:45 1025 30.27 854 25.22 6.8 44.3 60 -0.5 31.2
05:50 1025 30.27 854 25.22 7.3 45.1 58 -0.5 31.1
05:55 1025 30.27 854 25.22 7.6 45.7 57 -0.3 31.5
06:00 1025 30.27 854 25.22 7.9 46.2 57 -0.2 31.6
06:05 1025 30.27 854 25.22 8 46.5 57 0 32
06:10 1025 30.27 854 25.22 8.4 47.2 54 -0.2 31.7
06:15 1025 30.27 854 25.22 8.8 47.8 54 0 32
06:20 1025 30.27 854 25.22 9.4 48.9 52 0 32.1
06:25 1025 30.27 854 25.22 9.4 48.9 52 0.2 32.4
06:30 1025 30.27 854 25.22 9.9 49.8 51 0.2 32.4
06:35 1025 30.27 854 25.22 10.1 50.1 51 0.4 32.6
06:40 1025 30.27 854 25.22 10.7 51.2 48 0.3 32.5
06:45 1025 30.27 854 25.22 11 51.7 48 0.4 32.8
06:50 1025 30.27 854 25.22 11.4 52.4 47 0.6 33
06:55 1025 30.27 854 25.22 12.1 53.7 45 0.6 33.1
07:00 1025 30.27 854 25.22 12.6 54.7 44 0.8 33.4
07:05 1025 30.27 854 25.22 12.9 55.1 44 1.1 33.9
07:10 1025 30.27 854 25.22 12.7 54.9 45 1.2 34.1
07:15 1025 30.27 854 25.22 12.8 55 45 1.1 34
07:20 1025 30.27 854 25.22 13 55.5 44 1.3 34.3
07:25 1025 30.27 854 25.22 13.2 55.7 43 1 33.8
07:30 1025 30.27 854 25.22 13.5 56.3 42 1 33.9
07:35 1025 30.27 854 25.22 14.2 57.5 40 0.8 33.5
07:40 1025 30.27 854 25.22 14.9 58.9 34 -0.6 30.8
07:45 1025 30.27 854 25.22 15 58.9 36 0 32
07:50 1025 30.27 854 25.22 15 59.1 32 -1.4 29.5
07:55 1025 30.27 854 25.22 14.9 58.8 37 0.2 32.4
08:00 1025 30.27 854 25.22 15.3 59.6 35 -0.1 31.8
08:05 1025 30.27 854 25.22 15.9 60.5 34 0.2 32.4
08:10 1025 30.27 854 25.22 16 60.8 34 0.2 32.4
08:15 1025 30.27 854 25.22 15.7 60.2 34 -0 32
08:20 1025 30.27 854 25.22 15.8 60.5 34 -0 32
08:25 1025 30.27 854 25.22 15.6 60.2 33 -0.5 31.1
08:30 1025 30.27 854 25.22 15.8 60.5 33 -0.2 31.6
08:35 1025 30.27 854 25.22 16.4 61.6 32 -0.4 31.3
08:40 1025 30.27 854 25.22 16.2 61.2 33 0.3 32.5
08:45 1025 30.27 854 25.22 16.6 61.8 32 -0.1 31.8
08:50 1025 30.27 854 25.22 17 62.5 32 0.1 32.1
08:55 1025 30.27 854 25.22 17.1 62.8 31 0.1 32.2
09:00 1025 30.27 854 25.22 17 62.5 31 -0.1 31.8
09:05 1025 30.27 854 25.22 17 62.6 32 0.2 32.4
09:10 1025 30.27 854 25.22 17 62.7 31 0.1 32.1
09:15 1025 30.27 854 25.22 17.2 62.9 31 0.2 32.4
09:20 1025 30.27 854 25.22 17 62.6 31 0 32.1
09:25 1025 30.27 854 25.22 17.5 63.5 30 -0 32
09:30 1025 30.27 854 25.22 17.2 62.9 30 -0.3 31.5
09:35 1025 30.27 854 25.22 17 62.5 32 0.3 32.6
09:40 1025 30.27 854 25.22 17.7 63.8 30 -0.1 31.9
09:45 1025 30.27 854 25.22 18 64.4 30 0.4 32.7
09:50 1025 30.27 854 25.22 17.9 64.2 30 0.1 32.2
09:55 1025 30.27 854 25.22 18 64.5 30 0.2 32.3
10:00 1025 30.27 854 25.22 18.2 64.8 30 0.6 33
10:05 1025 30.27 854 25.22 18.3 65 30 0.5 32.8
10:10 1025 30.27 854 25.22 18.5 65.3 29 0.5 32.8
10:15 1025 30.27 854 25.22 18.8 65.8 28 0.2 32.4
10:20 1024 30.24 854 25.22 19.1 66.3 29 0.5 33
10:25 1024 30.24 854 25.22 19.3 66.7 29 1.1 33.9
10:30 1024 30.24 854 25.22 19.3 66.7 28 0.4 32.7
10:35 1024 30.24 854 25.22 19.1 66.3 29 0.5 33
10:40 1024 30.24 854 25.22 18.8 65.8 29 0.3 32.6
10:45 1024 30.24 853 25.19 18.9 66 28 0.1 32.3
10:50 1024 30.24 853 25.19 19.4 66.9 28 0.5 32.9
10:55 1024 30.24 853 25.19 19.2 66.5 29 0.7 33.3
11:00 1024 30.24 853 25.19 18.8 65.8 28 0.2 32.3
11:05 1024 30.24 853 25.19 19 66.2 28 0.4 32.7
11:10 1024 30.24 853 25.19 18.2 64.8 29 0.1 32.1
11:15 1024 30.24 853 25.19 18.5 65.3 28 -0.1 31.9
11:20 1024 30.24 853 25.19 18.8 65.8 28 0.2 32.3
11:25 1024 30.24 853 25.19 19.4 67 28 0.5 32.9
11:30 1024 30.24 853 25.19 19.7 67.4 27 0.3 32.5
11:35 1024 30.24 853 25.19 20.2 68.4 27 0.8 33.4
11:40 1024 30.24 853 25.19 20.3 68.6 26 0.3 32.6
11:45 1024 30.24 853 25.19 20 68.1 28 1 33.9
11:50 1024 30.24 853 25.19 18.8 65.8 29 0.3 32.6
11:55 1024 30.24 853 25.19 19.5 67.2 27 0.4 32.6
12:00 1024 30.24 853 25.19 20.6 69.2 25 0.1 32.2
12:05 1024 30.24 853 25.19 21.3 70.3 24 0.3 32.5
12:10 1023 30.21 853 25.19 21.6 70.8 23 -0.2 31.6
12:15 1023 30.21 853 25.19 20.5 68.9 27 1 33.7
12:20 1023 30.21 853 25.19 20.2 68.3 24 -0.6 30.9
12:25 1023 30.21 852 25.16 20.9 69.7 24 -0 31.9
12:30 1023 30.21 852 25.16 21.3 70.3 24 0.3 32.5
12:35 1023 30.21 852 25.16 21 69.8 25 0.4 32.8
12:40 1023 30.21 852 25.16 21.5 70.7 24 0.1 32.3
12:45 1023 30.21 852 25.16 21.9 71.4 23 -0.1 31.8
12:50 1023 30.21 852 25.16 21.3 70.3 23 -0.2 31.6
12:55 1023 30.21 852 25.16 21.9 71.5 22 -0.6 31
13:00 1023 30.21 852 25.16 21.4 70.6 24 0 32
13:05 1023 30.21 852 25.16 21.1 70 22 -1 30.2
13:10 1023 30.21 852 25.16 21.3 70.4 21 -1.4 29.4
13:15 1023 30.21 852 25.16 21 69.9 23 -0.8 30.6
13:20 1022 30.18 852 25.16 21.2 70.1 23 -0.8 30.6
13:25 1022 30.18 852 25.16 21.7 71.1 22 -0.6 30.9
13:30 1022 30.18 852 25.16 22 71.6 20 -2 28.4
13:35 1022 30.18 852 25.16 20.7 69.3 22 -1.8 28.7
13:40 1022 30.18 851 25.13 20.6 69 21 -2.5 27.4
13:45 1022 30.18 851 25.13 21 69.7 22 -1.2 29.9
13:50 1022 30.18 851 25.13 21.7 71.1 22 -0.7 30.7
13:55 1022 30.18 851 25.13 21.6 70.9 23 -0.5 31.1
14:00 1022 30.18 851 25.13 20.6 69.1 23 -0.8 30.5
14:05 1022 30.18 851 25.13 20.2 68.3 23 -1.2 29.8
14:10 1022 30.18 851 25.13 20.1 68.2 24 -1 30.3
14:15 1022 30.18 851 25.13 19.8 67.7 24 -1.1 30
14:20 1022 30.18 851 25.13 20.6 69.1 22 -1.5 29.3
14:25 1022 30.18 851 25.13 21.1 70 22 -1.4 29.5
14:30 1022 30.18 851 25.13 21.3 70.3 22 -1.3 29.7
14:35 1022 30.18 851 25.13 21.4 70.5 21 -1.8 28.7
14:40 1022 30.18 851 25.13 22.3 72.1 20 -1.8 28.8
14:45 1021 30.15 851 25.13 21.7 71.1 20 -2.3 27.9
14:50 1021 30.15 850 25.1 21.5 70.6 21 -1.3 29.7
14:55 1021 30.15 850 25.1 21.9 71.5 20 -2.1 28.2
15:00 1021 30.15 850 25.1 22.5 72.4 19 -2 28.4
15:05 1021 30.15 850 25.1 22.7 72.9 19 -1.7 28.9
15:10 1021 30.15 850 25.1 22 71.7 20 -1.8 28.7
15:15 1021 30.15 850 25.1 22 71.5 18 -3 26.5
15:20 1021 30.15 850 25.1 22.4 72.4 19 -1.9 28.6
15:25 1021 30.15 850 25.1 22.3 72.1 19 -2.5 27.4
15:30 1021 30.15 850 25.1 22 71.7 20 -1.6 29.1
15:35 1021 30.15 850 25.1 22.7 72.9 19 -1.7 28.9
15:40 1021 30.15 850 25.1 22.8 73.1 19 -1.9 28.5
15:45 1021 30.15 850 25.1 22.2 72 19 -2.2 28
15:50 1021 30.15 850 25.1 22.2 71.9 21 -0.8 30.5
15:55 1021 30.15 850 25.1 22.2 72 19 -2 28.3
16:00 1021 30.15 850 25.1 22.3 72.1 20 -1.9 28.6
16:05 1021 30.15 850 25.1 22.5 72.4 19 -2.2 28.1
16:10 1021 30.15 850 25.1 22.4 72.3 18 -2.9 26.7
16:15 1021 30.15 850 25.1 22.4 72.4 19 -2.4 27.7
16:20 1020 30.12 850 25.1 22.9 73.1 17 -2.9 26.7
16:25 1020 30.12 850 25.1 22.8 73 17 -3 26.6
16:30 1020 30.12 850 25.1 22.6 72.7 18 -2.9 26.8
16:35 1020 30.12 850 25.1 22.6 72.6 18 -2.6 27.4
16:40 1020 30.12 849 25.07 22.6 72.7 18 -2.8 27
16:45 1020 30.12 849 25.07 22.6 72.7 19 -2.3 27.8
16:50 1020 30.12 849 25.07 22.6 72.6 17 -3.3 26.1
16:55 1020 30.12 849 25.07 22.3 72.2 18 -3.2 26.2
17:00 1020 30.12 849 25.07 22.5 72.4 17 -3.9 25
17:05 1020 30.12 849 25.07 22.1 71.7 19 -2.7 27.1
17:10 1020 30.12 849 25.07 21.3 70.4 20 -2.5 27.5
17:15 1020 30.12 849 25.07 21.1 70 21 -2.2 28
17:20 1020 30.12 849 25.07 21.5 70.7 20 -2.1 28.2
17:25 1020 30.12 849 25.07 21.7 71.1 20 -2.1 28.2
17:30 1020 30.12 849 25.07 21.6 70.9 19 -2.9 26.9
17:35 1020 30.12 849 25.07 21.8 71.2 19 -3 26.6
17:40 1020 30.12 849 25.07 21.9 71.4 19 -2.8 26.9
17:45 1020 30.12 849 25.07 21.6 70.8 19 -3.1 26.5
17:50 1020 30.12 849 25.07 21.3 70.4 19 -2.9 26.7
17:55 1020 30.12 849 25.07 21.2 70.2 19 -2.9 26.8
18:00 1020 30.12 849 25.07 21.1 70 19 -3.1 26.3
18:05 1020 30.12 849 25.07 20.9 69.6 20 -3 26.7
18:10 1020 30.12 849 25.07 20.7 69.2 21 -2.4 27.8
18:15 1020 30.12 849 25.07 20.6 69 20 -2.9 26.8
18:20 1020 30.12 849 25.07 20.5 68.9 21 -2.3 27.9
18:25 1019 30.09 849 25.07 20.5 68.8 21 -2.5 27.4
18:30 1019 30.09 849 25.07 20.4 68.7 21 -2.6 27.3
18:35 1019 30.09 849 25.07 20.3 68.6 21 -2.3 27.9
18:40 1019 30.09 849 25.07 20.3 68.5 22 -2.2 28.1
18:45 1019 30.09 849 25.07 20.2 68.4 21 -2.3 27.8
18:50 1019 30.09 849 25.07 20.2 68.4 21 -2.5 27.6
18:55 1019 30.09 849 25.07 20.2 68.4 22 -2.3 27.9
19:00 1019 30.09 849 25.07 20.2 68.3 21 -2.4 27.7
19:05 1019 30.09 849 25.07 20.2 68.3 22 -2 28.4
19:10 1019 30.09 849 25.07 20.1 68.1 22 -1.9 28.6
19:15 1019 30.09 849 25.07 20 67.9 22 -2.1 28.3
19:20 1019 30.09 849 25.07 19.9 67.8 23 -2 28.5
19:25 1019 30.09 849 25.07 19.8 67.6 23 -1.9 28.5
19:30 1019 30.09 849 25.07 19.6 67.2 29 1.1 34
19:35 1019 30.09 849 25.07 18.5 65.2 32 1.5 34.7
19:40 1019 30.09 849 25.07 17.9 64.3 30 0.2 32.4
19:45 1019 30.09 849 25.07 17.9 64.2 32 1.1 33.9
19:50 1019 30.09 849 25.07 17.5 63.5 33 1 33.9
19:55 1019 30.09 849 25.07 17.2 62.9 33 1 33.9
20:00 1019 30.09 849 25.07 16.5 61.7 35 0.9 33.6
20:05 1019 30.09 849 25.07 16 60.9 38 1.7 35.1
20:10 1019 30.09 849 25.07 16 60.7 35 0.5 32.9
20:15 1020 30.12 849 25.07 15.8 60.4 35 0.5 32.9
20:20 1020 30.12 849 25.07 15.5 59.9 36 0.5 32.8
20:25 1020 30.12 849 25.07 15.3 59.5 37 0.8 33.4
20:30 1020 30.12 849 25.07 15.1 59.2 41 2 35.7
20:35 1020 30.12 849 25.07 15 59 37 0.7 33.2
20:40 1020 30.12 849 25.07 14.7 58.5 38 0.5 33
20:45 1020 30.12 849 25.07 14.5 58.1 39 0.8 33.4
20:50 1020 30.12 849 25.07 14.3 57.7 39 0.6 33.1
20:55 1020 30.12 849 25.07 14.2 57.5 40 0.8 33.4
21:00 1020 30.12 849 25.07 14.2 57.6 40 0.7 33.3
21:05 1020 30.12 849 25.07 14.2 57.6 38 0.3 32.6
21:10 1020 30.12 849 25.07 14.1 57.3 39 0.5 32.8
21:15 1020 30.12 849 25.07 14.1 57.4 40 0.7 33.3
21:20 1020 30.12 849 25.07 14 57.2 39 0.5 32.8
21:25 1020 30.12 849 25.07 13.7 56.7 40 0.5 32.9
21:30 1020 30.12 849 25.07 13.7 56.6 40 0.5 32.9
21:35 1020 30.12 849 25.07 13.8 56.8 41 0.7 33.3
21:40 1020 30.12 849 25.07 13.8 56.8 41 0.7 33.2
21:45 1020 30.12 849 25.07 13.7 56.6 41 0.7 33.2
21:50 1020 30.12 850 25.1 13.5 56.3 42 0.9 33.7
21:55 1020 30.12 849 25.07 13 55.5 44 1 33.8
22:00 1020 30.12 850 25.1 12.8 55.1 44 0.9 33.6
22:05 1020 30.12 850 25.1 12.8 55.1 43 0.7 33.2
22:10 1020 30.12 850 25.1 13 55.5 41 0.3 32.5
22:15 1020 30.12 850 25.1 13.1 55.6 42 0.6 33.2
22:20 1021 30.15 850 25.1 13 55.4 43 0.9 33.6
22:25 1021 30.15 850 25.1 12.9 55.3 45 1.3 34.3
22:30 1021 30.15 850 25.1 13.1 55.6 46 1.8 35.2
22:35 1021 30.15 850 25.1 13.5 56.3 46 2.2 35.9
22:40 1021 30.15 850 25.1 13.9 56.9 46 2.6 36.7
22:45 1021 30.15 850 25.1 13.9 56.9 48 3 37.4
22:50 1021 30.15 850 25.1 13.9 57.1 46 2.4 36.4
22:55 1021 30.15 850 25.1 13.9 57 45 2.3 36.2
23:00 1021 30.15 850 25.1 13.8 56.9 44 2 35.6
23:05 1021 30.15 850 25.1 13.9 57 45 2.4 36.2
23:10 1021 30.15 850 25.1 13.8 56.9 48 3 37.4
23:15 1021 30.15 850 25.1 13.6 56.5 50 3.5 38.3
23:20 1021 30.15 850 25.1 13.5 56.4 51 3.8 38.8
23:25 1021 30.15 850 25.1 13.4 56.1 52 3.9 39
23:30 1021 30.15 850 25.1 13.3 56 52 3.7 38.7
23:35 1021 30.15 850 25.1 13.3 56 53 4 39.1
23:40 1021 30.15 850 25.1 13.2 55.7 53 4 39.2
23:45 1021 30.15 850 25.1 13.1 55.5 55 4.2 39.6
23:50 1021 30.15 851 25.13 12.8 55.1 55 4.2 39.5
23:55 1021 30.15 851 25.13 12.8 55 55 4.1 39.5
24:00 1021 30.15 851 25.13 12.7 54.9 56 4.2 39.6